DAUH/HME METAR and TAF weather

Enter ICAO airport designator
Station Type Date Time Source
DAUH METAR 2020/01/21 21:30 UTC NOAA

DAUH 212130Z 11010KT 6000 NSC 19/M05 Q1018


Station Type Date Time Source
DAUH Decoded METAR 2020/01/21 21:30 UTC NOAA

Hassi-Messaoud, Algeria (DAUH) 31-40N 006-09E 142M
Jan 21, 2020 - 04:30 PM EST / 2020.01.21 2130 UTC
Wind: from the ESE (110 degrees) at 12 MPH (10 KT):0
Visibility: 3 mile(s):0
Temperature: 66 F (19 C)
Dew Point: 23 F (-5 C)
Relative Humidity: 19%
Pressure (altimeter): 30.06 in. Hg (1018 hPa)
ob: DAUH 212130Z 11010KT 6000 NSC 19/M05 Q1018
cycle: 21

Station Type Date Time Source
DAUH TAF 2020/01/21 18:09 UTC NOAA

TAF DAUH 211700Z 2118/2218 14014KT 3000 HZ NSC
BECMG 2119/2122 14008KT 6000 NSW PROB40 2200/2208 3000 HZ

Example: see airport list